mai
08

MX MONDIAL – GP D’AGUEDA (PORT) QUALIFICATIONS : MARVIN MUSQUIN DOMINE, PHILIPPAERTS EN FORME

MX2 – Qualifying Race – Classification
Pos Nr Rider Nat. Fed. Bike Time laps Diff. First Diff. Prev. Bestlaptime in lap Speed
1 1 Musquin, Marvin FRA FFM KTM 25:26.719 12 0:00.000 0:00.000 1:57.465 2 45.971

2 111 Herlings, Jeffrey NED KNMV KTM 25:28.819 12 0:02.100 0:02.100 1:56.077 12 46.521
3 11 Simpson, Shaun GBR MCUI KTM 25:40.218 12 0:13.499 0:11.399 1:58.322 7 45.638
4 94 Roczen, Ken GER DMSB Suzuki 25:50.752 12 0:24.033 0:10.534 1:58.522 1 45.561
5 430 Charlier, Christophe FRA FFM Yamaha 25:52.223 12 0:25.504 0:01.471 1:59.186 6 45.307
6 338 Osborne, Zach USA AMA Yamaha 26:07.082 12 0:40.363 0:14.859 1:59.366 4 45.239
7 34 Roelants, Joel BEL FMB KTM 26:10.327 12 0:43.608 0:03.245 1:59.830 9 45.064
8 23 Tonus, Arnaud SUI FMS Suzuki 26:17.193 12 0:50.474 0:06.866 1:59.835 2 45.062
9 35 Larsen, Nikolaj DEN DMU Honda 26:36.085 12 1:09.366 0:18.892 2:01.670 7 44.382
10 37 Teillet, Valentin FRA FFM KTM 26:39.506 12 1:12.787 0:03.421 1:59.111 12 45.336
11 89 van Horebeek, Jeremy BEL FMB Kawasaki 26:41.120 12 1:14.401 0:01.614 1:59.192 12 45.305
12 19 Smitka, Petr CZE ACCR KTM 26:47.354 12 1:20.635 0:06.234 2:01.618 9 44.401
13 151 Kullas, Harri FIN SML Yamaha 26:49.494 12 1:22.775 0:02.140 2:02.594 8 44.048
14 64 Vongsana, Khounsith FRA FFM TM 26:55.887 12 1:29.168 0:06.393 2:02.713 2 44.005
15 45 Nicholls, Jake GBR ACU KTM 27:00.183 12 1:33.464 0:04.296 2:02.700 7 44.01
16 91 Karro, Matiss LAT LAMSF Suzuki 27:02.652 12 1:35.933 0:02.469 2:02.888 9 43.942
17 30 Klein Kromhof, Ceriel NED KNMV Yamaha 27:05.332 12 1:38.613 0:02.680 2:02.918 2 43.932
18 300 Tonkov, Aleksandr RUS DMSB Suzuki 27:11.201 12 1:44.482 0:05.869 2:02.743 2 43.994
19 77 Lupino, Alessandro ITA FMI Yamaha 27:15.241 12 1:48.522 0:04.040 2:02.616 7 44.04
20 75 Triest, Nick BEL FMB KTM 25:35.697 11 1 lap 1 lap 2:05.161 6 43.144
21 153 Maddii, Marco ITA FMI Suzuki 25:43.032 11 1 lap 0:07.335 2:05.928 2 42.882
22 90 Moroni, Rudi ITA FMI Yamaha 25:48.080 11 1 lap 0:05.048 2:07.447 11 42.371
23 52 Alletru, Axel FRA FFM KTM 25:48.526 11 1 lap 0:00.446 2:04.356 2 43.424
24 414 Philippaerts, Deny ITA FMI Suzuki 25:49.304 11 1 lap 0:00.778 2:06.573 8 42.663
25 152 Petrov, Petar BUL BMF Honda 25:56.142 11 1 lap 0:06.838 2:07.389 10 42.39
26 119 Pocock, Mel GBR ACU Yamaha 25:57.955 11 1 lap 0:01.813 2:07.529 2 42.343
27 335 Verbruggen, Dennis BEL FMB KTM 26:00.646 11 1 lap 0:02.691 2:01.050 7 44.61
28 95 Justs, Augusts LAT LAMSF Honda 26:02.533 11 1 lap 0:01.887 2:07.412 4 42.382
29 811 Dagod, Hugo FRA FFM KTM 26:08.715 11 1 lap 0:06.182 2:04.919 4 43.228
30 501 Fernandes, Ivo POR FMPR KTM 26:13.924 11 1 lap 0:05.209 2:07.804 3 42.252
31 92 Battig, Alesandro ITA FMI Honda 26:23.578 11 1 lap 0:09.654 2:03.207 10 43.829
32 62 Gercar, Klemen SLO AMZS KTM 26:26.980 11 1 lap 0:03.402 2:07.398 6 42.387
33 202 Larrieu, Loic FRA FFM Yamaha 22:51.328 10 2 laps 1 lap 2:01.162 8 44.568
34 183 Frossard, Steven FRA FFM Kawasaki 19:44.308 9 3 laps 1 lap 1:58.959 6 45.394
35 211 Alberto, Paulo POR FMP Suzuki 5:04.375 1 11 laps 8 laps 2:16.579 1 39.53

MX1 – Qualifying Race – Classification
Pos Nr Rider Nat. Fed. Bike Time laps Diff. First Diff. Prev. Bestlaptime in lap Speed

1 19 Philippaerts, David ITA FMI Yamaha 25:19.912 12 0:00.000 0:00.000 1:56.177 3 46.481
2 222 Cairoli, Antonio ITA FMI KTM 25:20.240 12 0:00.328 0:00.328 1:56.328 2 46.42
3 25 Desalle, Clement BEL FMB Suzuki 25:49.042 12 0:29.130 0:28.802 1:56.314 2 46.426
4 121 Boog, Xavier FRA FFM Kawasaki 25:59.144 12 0:39.232 0:10.102 1:57.677 3 45.888
5 9 de Dycker, Ken BEL FMB Yamaha 26:09.606 12 0:49.694 0:10.462 1:56.687 3 46.278
6 39 Guarneri, Davide ITA FMI Honda 26:11.014 12 0:51.102 0:01.408 1:57.429 2 45.985
7 13 Monni, Manuel ITA FMI Yamaha 26:12.403 12 0:52.491 0:01.389 1:58.111 4 45.72
8 2 Nagl, Maximilian GER DMSB KTM 26:13.944 12 0:54.032 0:01.541 1:56.904 4 46.192
9 40 Leok, Tanel EST EMF Honda 26:18.454 12 0:58.542 0:04.510 1:58.234 4 45.672
10 4 Strijbos, Kevin BEL FMB Suzuki 26:26.613 12 1:06.701 0:08.159 1:59.720 3 45.105
11 8 Swanepoel, Gareth RSA ACU Honda 26:33.725 12 1:13.813 0:07.112 2:00.039 3 44.985
12 22 Goncalves, Rui POR FMP KTM 26:37.255 12 1:17.343 0:03.530 1:59.564 4 45.164
13 20 Aranda, Gregory FRA FFM Kawasaki 26:47.003 12 1:27.091 0:09.748 1:58.879 2 45.424
14 17 Söderström, Tom SWE SVEMO Yamaha 26:50.350 12 1:30.438 0:03.347 1:59.814 4 45.07
15 777 Bobryshev, Evgeny RUS MFR Honda 26:52.205 12 1:32.293 0:01.855 1:58.875 2 45.426
16 75 Wouts, Kevin BEL FMB Kawasaki 27:04.258 12 1:44.346 0:12.053 2:00.382 2 44.857
17 90 Pourcel, Sebastien FRA FFM Kawasaki 27:09.329 12 1:49.417 0:05.071 2:03.105 12 43.865
18 120 Soubeyras, Cedric FRA FFM KTM 27:10.243 12 1:50.331 0:00.914 2:00.889 2 44.669
19 331 Aubin, Nicolas FRA FFM Kawasaki 25:31.390 11 1 lap 1 lap 2:02.365 2 44.13

20 49 Schmidinger, Günter AUT OeAMTC Suzuki 25:44.228 11 1 lap 0:12.838 2:03.863 1 43.597
21 383 Bellino, Mathias FRA FFM KTM 26:03.294 11 1 lap 0:19.066 2:04.897 2 43.236
22 21 Jacquelin, Morgane FRA FFM Suzuki 26:16.442 11 1 lap 0:13.148 2:07.586 5 42.324

23 57 Neugebauer, Filip CZE DMSB Kawasaki 26:21.504 11 1 lap 0:05.062 2:05.012 3 43.196
24 131 Michek, Martin CZE ACCR TM 26:22.926 11 1 lap 0:01.422 2:04.879 2 43.242
25 36 Bonini, Matteo ITA FMI Yamaha 26:24.809 11 1 lap 0:01.883 2:08.129 3 42.145
26 15 Bill, Julien SUI FMS Aprilia 26:35.855 11 1 lap 0:11.046 2:03.241 3 43.817
27 76 Sandberg, Rickard SWE SVEMO Kawasaki 26:41.898 11 1 lap 0:06.043 2:05.690 2 42.963
28 74 Steinbergs, Ivo LAT LAMSF Honda 26:43.066 11 1 lap 0:01.168 2:09.636 2 41.655
29 27 Kempelis, Philips LAT LAMSF Honda 26:44.091 11 1 lap 0:01.025 2:08.157 3 42.136
30 6 Coppins, Joshua NZL MNZ Aprilia 16:22.800 7 5 laps 4 laps 1:59.848 2 45.057
31 11 Ramon, Steve BEL FMB Suzuki 13:27.446 6 6 laps 1 lap 1:56.767 2 46.246
32 10 Boissiere, Anthony FRA FFM TM 12:09.669 5 7 laps 1 lap 1:59.834 3 45.062
33 702 Albertson, Jimmy USA AMA Honda 13:42.594 5 7 laps 1:32.925 2:02.373 2 44.127
34 311 Correira, Luis POR FMP Yamaha 10:35.365 4 8 laps 1 lap 2:03.348 2 43.779
35 14 de Reuver, Marc NED MUL Suzuki 9:15.484 3 9 laps 1 lap 1:58.371 1 45.619
36 276 Santos, Hugo POR FMP Kawasaki 0:00.000 0 12 laps 3 laps 0:00.000 0 0

WMX – Race 1 – Classification
Pos Nr Rider Nat. Fed. Bike Time laps Diff. First Diff. Prev. Bestlaptime in lap Speed

1 114 Lancelot, Livia FRA FFM KTM 26:27.355 11 0:00.000 0:00.000 2:07.849 2 42.237
2 103 Franke, Maria GER DMSB KTM 26:39.136 11 0:11.781 0:11.781 2:10.581 3 41.354
3 1 Laier, Stephanie GER DMSB KTM 26:45.085 11 0:17.730 0:05.949 2:10.437 8 41.399
4 99 Mann, Elin SWE SVEMO KTM 27:02.467 11 0:35.112 0:17.382 2:11.603 3 41.032
5 44 Kane, Natalie GBR MCUI KTM 27:19.636 11 0:52.281 0:17.169 2:10.807 2 41.282
6 8 Fontanesi, Chiara ITA FMI Yamaha 27:24.322 11 0:56.967 0:04.686 2:13.591 4 40.422
7 11 van Wordragen, Nicky NED KNMV Yamaha 27:30.575 11 1:03.220 0:06.253 2:16.487 3 39.564
8 7 De Mol, Marielle NED KNMV Yamaha 27:39.778 11 1:12.423 0:09.203 2:16.498 3 39.561
9 111 Borchers, Anne GER DMSB Suzuki 27:57.060 11 1:29.705 0:17.282 2:15.708 1 39.791
10 116 Nocera, Francesca ITA FMI Honda 28:11.150 11 1:43.795 0:14.090 2:19.542 4 38.698
11 2 Papenmeier, Larissa GER DMSB Suzuki 28:11.877 11 1:44.522 0:00.727 2:11.585 4 41.038
12 51 Scott, Nikki NZL MUL KTM 28:38.488 11 2:11.133 0:26.611 2:20.146 4 38.531
13 89 De Winter, Elien BEL FMB KTM 28:44.202 11 2:16.847 0:05.714 2:20.590 5 38.41
14 149 Veenstra, Marianne NED KNMV Suzuki 28:45.442 11 2:18.087 0:01.240 2:22.509 6 37.892
15 46 van der Wekken, Britt NED KNMV Honda 28:48.691 11 2:21.336 0:03.249 2:21.728 5 38.101
16 86 Verkade, Shirley NED KNMV KTM 28:52.589 11 2:25.234 0:03.898 2:21.830 6 38.074
17 123 Giroix, Manon FRA FFM Yamaha 26:59.100 10 1 lap 1 lap 2:25.133 3 37.207
18 36 de Barquin, Morane BEL FMB KTM 27:11.832 10 1 lap 0:12.732 2:24.292 4 37.424
19 92 Segura Pereira, Carmen ESP RFME KTM 27:13.875 10 1 lap 0:02.043 2:25.497 4 37.114
20 118 Germond, Virginie SUI FMS Suzuki 27:29.880 10 1 lap 0:16.005 2:25.611 1 37.085
21 77 Johansson, Sofia SWE SVEMO KTM 27:32.188 10 1 lap 0:02.308 2:27.610 4 36.583
22 52 Charroux, Justine FRA FFM Yamaha 27:39.027 10 1 lap 0:06.839 2:26.471 2 36.867
23 45 Jonasson, Filippa SWE SVEMO KTM 27:40.589 10 1 lap 0:01.562 2:24.827 2 37.286
24 55 Irmgartz, Kim GER DMSB Yamaha 27:47.102 10 1 lap 0:06.513 2:27.108 4 36.708
25 113 Paull, Sophia GBR ACU Yamaha 28:03.748 10 1 lap 0:16.646 2:28.364 2 36.397
26 25 Guryeva, Ekaterina RUS MFR KTM 27:10.166 9 2 laps 1 lap 2:37.877 2 34.204
27 35 van Hoof, Sonia BEL FMB KTM 27:10.608 9 2 laps 0:00.442 2:37.260 1 34.338
28 100 Fransoo, Natascha GER DMSB Kawasaki 27:27.480 9 2 laps 0:16.872 2:32.249 3 35.468
29 221 Simonet, Annabelle FRA FFM Kawasaki 27:35.508 9 2 laps 0:08.028 2:37.880 2 34.203
30 88 Rivas, Silvia ESP RFME Honda 27:38.177 9 2 laps 0:02.669 2:36.231 1 34.564
31 722 Hilario, Vanessa POR FMP Yamaha 27:49.502 9 2 laps 0:11.325 2:40.466 3 33.652
32 75 Van De Velde, Jessica BEL FMB Honda 27:56.269 9 2 laps 0:06.767 2:38.724 1 34.021
33 21 Partida, Aurelie FRA FFM Honda 28:49.718 9 2 laps 0:53.449 2:41.522 2 33.432
34 987 Lago, Erica ITA FMI Suzuki 27:03.685 8 3 laps 1 lap 2:53.580 6 31.11
35 29 Magallon Gubau, Carla ESP RFME Kawasaki 28:02.145 7 4 laps 1 lap 2:44.958 3 32.736
36 22 Petterson, Sara SWE SVEMO KTM 17:18.732 6 5 laps 1 lap 2:24.524 3 37.364
37 30 Seisdedos, Gabriela ESP RFME Kawasaki 15:30.388 3 8 laps 3 laps 2:34.209 2 35.017
38 102 Pillet, Florence SUI FMS KTM 7:51.866 2 9 laps 1 lap 2:32.761 1 35.349

(Photo : Ray Archer & Yamaha Racing)

A voir aussi :

Le commentaires sont fermés.